sensor_id;sensor_type;location;lat;lon;timestamp;P1;durP1;ratioP1;P2;durP2;ratioP2
4180;SDS011;2104;52.394;13.036;2023-04-24T00:01:49;12.02;;;8.55;;
4180;SDS011;2104;52.394;13.036;2023-04-24T00:04:15;9.80;;;7.93;;
4180;SDS011;2104;52.394;13.036;2023-04-24T00:06:41;12.32;;;7.63;;
4180;SDS011;2104;52.394;13.036;2023-04-24T00:09:07;10.60;;;7.00;;
4180;SDS011;2104;52.394;13.036;2023-04-24T00:11:35;10.45;;;7.35;;
4180;SDS011;2104;52.394;13.036;2023-04-24T00:14:01;11.70;;;7.65;;
4180;SDS011;2104;52.394;13.036;2023-04-24T00:16:26;12.02;;;8.40;;
4180;SDS011;2104;52.394;13.036;2023-04-24T00:18:52;10.23;;;7.68;;
4180;SDS011;2104;52.394;13.036;2023-04-24T00:21:21;10.27;;;8.10;;
4180;SDS011;2104;52.394;13.036;2023-04-24T00:23:50;10.30;;;7.20;;
4180;SDS011;2104;52.394;13.036;2023-04-24T00:26:15;10.45;;;7.85;;
4180;SDS011;2104;52.394;13.036;2023-04-24T00:28:41;9.25;;;7.13;;
4180;SDS011;2104;52.394;13.036;2023-04-24T00:31:06;10.77;;;8.35;;
4180;SDS011;2104;52.394;13.036;2023-04-24T00:33:32;8.65;;;7.13;;
4180;SDS011;2104;52.394;13.036;2023-04-24T00:35:58;9.70;;;7.35;;
4180;SDS011;2104;52.394;13.036;2023-04-24T00:38:23;14.35;;;8.13;;
4180;SDS011;2104;52.394;13.036;2023-04-24T00:40:49;12.05;;;7.35;;
4180;SDS011;2104;52.394;13.036;2023-04-24T00:43:15;10.65;;;7.90;;
4180;SDS011;2104;52.394;13.036;2023-04-24T00:45:41;11.43;;;6.90;;
4180;SDS011;2104;52.394;13.036;2023-04-24T00:48:08;9.05;;;7.30;;
4180;SDS011;2104;52.394;13.036;2023-04-24T00:50:35;11.15;;;8.65;;
4180;SDS011;2104;52.394;13.036;2023-04-24T00:53:01;9.82;;;7.35;;
4180;SDS011;2104;52.394;13.036;2023-04-24T00:55:26;12.30;;;8.52;;
4180;SDS011;2104;52.394;13.036;2023-04-24T00:57:52;13.75;;;7.53;;
4180;SDS011;2104;52.394;13.036;2023-04-24T01:00:17;8.93;;;7.20;;
4180;SDS011;2104;52.394;13.036;2023-04-24T01:02:44;10.27;;;7.32;;
4180;SDS011;2104;52.394;13.036;2023-04-24T01:05:10;10.38;;;8.32;;
4180;SDS011;2104;52.394;13.036;2023-04-24T01:07:36;9.27;;;7.68;;
4180;SDS011;2104;52.394;13.036;2023-04-24T01:10:04;11.35;;;8.30;;
4180;SDS011;2104;52.394;13.036;2023-04-24T01:12:29;11.05;;;8.82;;
4180;SDS011;2104;52.394;13.036;2023-04-24T01:14:55;11.45;;;8.13;;
4180;SDS011;2104;52.394;13.036;2023-04-24T01:17:21;10.52;;;8.00;;
4180;SDS011;2104;52.394;13.036;2023-04-24T01:19:47;12.95;;;8.88;;
4180;SDS011;2104;52.394;13.036;2023-04-24T01:22:15;10.38;;;8.38;;
4180;SDS011;2104;52.394;13.036;2023-04-24T01:24:42;13.25;;;8.98;;
4180;SDS011;2104;52.394;13.036;2023-04-24T01:27:08;11.40;;;8.10;;
4180;SDS011;2104;52.394;13.036;2023-04-24T01:29:34;12.38;;;8.32;;
4180;SDS011;2104;52.394;13.036;2023-04-24T01:32:00;13.30;;;8.18;;
4180;SDS011;2104;52.394;13.036;2023-04-24T01:34:25;10.68;;;8.30;;
4180;SDS011;2104;52.394;13.036;2023-04-24T01:36:51;11.95;;;8.88;;
4180;SDS011;2104;52.394;13.036;2023-04-24T01:39:16;12.48;;;9.40;;
4180;SDS011;2104;52.394;13.036;2023-04-24T01:41:42;17.00;;;9.55;;
4180;SDS011;2104;52.394;13.036;2023-04-24T01:44:08;10.63;;;8.45;;
4180;SDS011;2104;52.394;13.036;2023-04-24T01:46:33;11.27;;;8.77;;
4180;SDS011;2104;52.394;13.036;2023-04-24T01:49:00;10.38;;;8.02;;
4180;SDS011;2104;52.394;13.036;2023-04-24T01:51:26;11.80;;;8.65;;
4180;SDS011;2104;52.394;13.036;2023-04-24T01:53:51;12.32;;;8.93;;
4180;SDS011;2104;52.394;13.036;2023-04-24T01:56:18;13.07;;;8.95;;
4180;SDS011;2104;52.394;13.036;2023-04-24T01:58:45;13.75;;;8.80;;
4180;SDS011;2104;52.394;13.036;2023-04-24T02:01:15;10.13;;;8.27;;
4180;SDS011;2104;52.394;13.036;2023-04-24T02:03:43;10.35;;;9.18;;
4180;SDS011;2104;52.394;13.036;2023-04-24T02:06:09;12.43;;;9.73;;
4180;SDS011;2104;52.394;13.036;2023-04-24T02:08:34;11.75;;;8.95;;
4180;SDS011;2104;52.394;13.036;2023-04-24T02:10:59;13.52;;;9.00;;
4180;SDS011;2104;52.394;13.036;2023-04-24T02:13:26;12.77;;;8.90;;
4180;SDS011;2104;52.394;13.036;2023-04-24T02:15:52;11.60;;;9.13;;
4180;SDS011;2104;52.394;13.036;2023-04-24T02:18:17;12.93;;;8.68;;
4180;SDS011;2104;52.394;13.036;2023-04-24T02:20:43;11.48;;;8.13;;
4180;SDS011;2104;52.394;13.036;2023-04-24T02:23:08;9.48;;;8.30;;
4180;SDS011;2104;52.394;13.036;2023-04-24T02:25:34;14.18;;;8.88;;
4180;SDS011;2104;52.394;13.036;2023-04-24T02:27:59;12.27;;;9.13;;
4180;SDS011;2104;52.394;13.036;2023-04-24T02:30:25;10.35;;;8.65;;
4180;SDS011;2104;52.394;13.036;2023-04-24T02:32:50;10.18;;;8.45;;
4180;SDS011;2104;52.394;13.036;2023-04-24T02:35:16;13.63;;;9.35;;
4180;SDS011;2104;52.394;13.036;2023-04-24T02:37:41;12.52;;;9.70;;
4180;SDS011;2104;52.394;13.036;2023-04-24T02:40:07;13.75;;;8.80;;
4180;SDS011;2104;52.394;13.036;2023-04-24T02:42:33;10.23;;;8.50;;
4180;SDS011;2104;52.394;13.036;2023-04-24T02:44:59;13.82;;;9.25;;
4180;SDS011;2104;52.394;13.036;2023-04-24T02:47:24;10.68;;;8.40;;
4180;SDS011;2104;52.394;13.036;2023-04-24T02:49:50;10.38;;;8.75;;
4180;SDS011;2104;52.394;13.036;2023-04-24T02:52:15;11.57;;;8.88;;
4180;SDS011;2104;52.394;13.036;2023-04-24T02:54:42;17.33;;;9.10;;
4180;SDS011;2104;52.394;13.036;2023-04-24T02:57:08;13.73;;;8.77;;
4180;SDS011;2104;52.394;13.036;2023-04-24T02:59:33;14.80;;;9.82;;
4180;SDS011;2104;52.394;13.036;2023-04-24T03:01:59;12.35;;;9.60;;
4180;SDS011;2104;52.394;13.036;2023-04-24T03:04:24;11.50;;;8.82;;
4180;SDS011;2104;52.394;13.036;2023-04-24T03:06:50;14.15;;;9.32;;
4180;SDS011;2104;52.394;13.036;2023-04-24T03:09:17;11.88;;;8.85;;
4180;SDS011;2104;52.394;13.036;2023-04-24T03:11:43;10.35;;;8.75;;
4180;SDS011;2104;52.394;13.036;2023-04-24T03:14:08;13.48;;;8.50;;
4180;SDS011;2104;52.394;13.036;2023-04-24T03:16:34;10.02;;;8.32;;
4180;SDS011;2104;52.394;13.036;2023-04-24T03:18:59;10.93;;;8.18;;
4180;SDS011;2104;52.394;13.036;2023-04-24T03:21:25;14.10;;;8.43;;
4180;SDS011;2104;52.394;13.036;2023-04-24T03:23:51;10.80;;;8.63;;
4180;SDS011;2104;52.394;13.036;2023-04-24T03:26:17;12.48;;;8.65;;
4180;SDS011;2104;52.394;13.036;2023-04-24T03:28:42;10.73;;;7.75;;
4180;SDS011;2104;52.394;13.036;2023-04-24T03:31:07;14.07;;;8.70;;
4180;SDS011;2104;52.394;13.036;2023-04-24T03:33:33;13.18;;;7.72;;
4180;SDS011;2104;52.394;13.036;2023-04-24T03:35:58;10.32;;;8.23;;
4180;SDS011;2104;52.394;13.036;2023-04-24T03:38:23;11.45;;;8.20;;
4180;SDS011;2104;52.394;13.036;2023-04-24T03:40:49;10.50;;;8.98;;
4180;SDS011;2104;52.394;13.036;2023-04-24T03:43:14;9.32;;;7.70;;
4180;SDS011;2104;52.394;13.036;2023-04-24T03:45:40;9.98;;;8.40;;
4180;SDS011;2104;52.394;13.036;2023-04-24T03:48:06;10.52;;;8.98;;
4180;SDS011;2104;52.394;13.036;2023-04-24T03:50:32;10.77;;;7.90;;
4180;SDS011;2104;52.394;13.036;2023-04-24T03:52:58;12.10;;;8.75;;
4180;SDS011;2104;52.394;13.036;2023-04-24T03:55:24;10.85;;;8.70;;
4180;SDS011;2104;52.394;13.036;2023-04-24T03:57:49;15.73;;;8.90;;
4180;SDS011;2104;52.394;13.036;2023-04-24T04:00:15;11.20;;;8.57;;
4180;SDS011;2104;52.394;13.036;2023-04-24T04:02:41;10.93;;;8.77;;
4180;SDS011;2104;52.394;13.036;2023-04-24T04:05:06;10.65;;;7.90;;
4180;SDS011;2104;52.394;13.036;2023-04-24T04:07:33;12.18;;;8.05;;
4180;SDS011;2104;52.394;13.036;2023-04-24T04:09:58;14.00;;;9.48;;
4180;SDS011;2104;52.394;13.036;2023-04-24T04:12:24;12.75;;;8.95;;
4180;SDS011;2104;52.394;13.036;2023-04-24T04:14:49;11.77;;;7.55;;
4180;SDS011;2104;52.394;13.036;2023-04-24T04:17:14;10.88;;;8.50;;
4180;SDS011;2104;52.394;13.036;2023-04-24T04:19:40;17.50;;;10.15;;
4180;SDS011;2104;52.394;13.036;2023-04-24T04:22:05;15.60;;;9.40;;
4180;SDS011;2104;52.394;13.036;2023-04-24T04:24:33;13.98;;;9.88;;
4180;SDS011;2104;52.394;13.036;2023-04-24T04:26:58;20.42;;;10.75;;
4180;SDS011;2104;52.394;13.036;2023-04-24T04:29:25;15.55;;;9.45;;
4180;SDS011;2104;52.394;13.036;2023-04-24T04:31:51;13.55;;;9.27;;
4180;SDS011;2104;52.394;13.036;2023-04-24T04:34:17;13.65;;;9.85;;
4180;SDS011;2104;52.394;13.036;2023-04-24T04:36:43;14.43;;;9.90;;
4180;SDS011;2104;52.394;13.036;2023-04-24T04:39:09;12.98;;;9.32;;
4180;SDS011;2104;52.394;13.036;2023-04-24T04:41:34;12.63;;;8.98;;
4180;SDS011;2104;52.394;13.036;2023-04-24T04:44:00;13.20;;;8.70;;
4180;SDS011;2104;52.394;13.036;2023-04-24T04:46:26;11.05;;;8.13;;
4180;SDS011;2104;52.394;13.036;2023-04-24T04:48:55;9.43;;;7.55;;
4180;SDS011;2104;52.394;13.036;2023-04-24T04:51:21;10.07;;;6.70;;
4180;SDS011;2104;52.394;13.036;2023-04-24T04:53:47;8.07;;;6.07;;
4180;SDS011;2104;52.394;13.036;2023-04-24T04:56:13;8.65;;;6.72;;
4180;SDS011;2104;52.394;13.036;2023-04-24T04:58:38;10.25;;;6.55;;
4180;SDS011;2104;52.394;13.036;2023-04-24T05:01:03;6.88;;;5.30;;
4180;SDS011;2104;52.394;13.036;2023-04-24T05:03:29;7.68;;;5.55;;
4180;SDS011;2104;52.394;13.036;2023-04-24T05:05:55;6.53;;;5.03;;
4180;SDS011;2104;52.394;13.036;2023-04-24T05:08:20;7.00;;;4.45;;
4180;SDS011;2104;52.394;13.036;2023-04-24T05:10:46;10.65;;;4.22;;
4180;SDS011;2104;52.394;13.036;2023-04-24T05:13:11;9.45;;;4.30;;
4180;SDS011;2104;52.394;13.036;2023-04-24T05:15:36;5.55;;;4.40;;
4180;SDS011;2104;52.394;13.036;2023-04-24T05:18:02;5.05;;;3.60;;
4180;SDS011;2104;52.394;13.036;2023-04-24T05:20:28;8.85;;;3.50;;
4180;SDS011;2104;52.394;13.036;2023-04-24T05:22:53;5.28;;;3.30;;
4180;SDS011;2104;52.394;13.036;2023-04-24T05:25:18;6.10;;;4.03;;
4180;SDS011;2104;52.394;13.036;2023-04-24T05:27:44;4.60;;;3.75;;
4180;SDS011;2104;52.394;13.036;2023-04-24T05:30:11;4.45;;;3.25;;
4180;SDS011;2104;52.394;13.036;2023-04-24T05:32:37;4.18;;;3.03;;
4180;SDS011;2104;52.394;13.036;2023-04-24T05:35:02;4.05;;;3.35;;
4180;SDS011;2104;52.394;13.036;2023-04-24T05:37:28;5.22;;;3.08;;
4180;SDS011;2104;52.394;13.036;2023-04-24T05:39:54;7.75;;;3.55;;
4180;SDS011;2104;52.394;13.036;2023-04-24T05:42:19;5.45;;;3.28;;
4180;SDS011;2104;52.394;13.036;2023-04-24T05:44:45;7.22;;;2.83;;
4180;SDS011;2104;52.394;13.036;2023-04-24T05:47:10;4.70;;;2.47;;
4180;SDS011;2104;52.394;13.036;2023-04-24T05:49:36;3.13;;;2.10;;
4180;SDS011;2104;52.394;13.036;2023-04-24T05:52:01;2.90;;;2.28;;
4180;SDS011;2104;52.394;13.036;2023-04-24T05:54:29;11.43;;;2.42;;
4180;SDS011;2104;52.394;13.036;2023-04-24T05:56:54;4.38;;;2.08;;
4180;SDS011;2104;52.394;13.036;2023-04-24T05:59:20;2.60;;;1.70;;
4180;SDS011;2104;52.394;13.036;2023-04-24T06:01:46;5.25;;;2.80;;
4180;SDS011;2104;52.394;13.036;2023-04-24T06:04:12;3.50;;;2.25;;
4180;SDS011;2104;52.394;13.036;2023-04-24T06:06:38;2.85;;;1.60;;
4180;SDS011;2104;52.394;13.036;2023-04-24T06:09:04;3.45;;;1.67;;
4180;SDS011;2104;52.394;13.036;2023-04-24T06:11:30;3.47;;;1.40;;
4180;SDS011;2104;52.394;13.036;2023-04-24T06:13:55;5.07;;;1.45;;
4180;SDS011;2104;52.394;13.036;2023-04-24T06:16:21;2.72;;;1.35;;
4180;SDS011;2104;52.394;13.036;2023-04-24T06:18:46;2.08;;;1.10;;
4180;SDS011;2104;52.394;13.036;2023-04-24T06:21:12;3.97;;;1.50;;
4180;SDS011;2104;52.394;13.036;2023-04-24T06:23:37;2.35;;;1.10;;
4180;SDS011;2104;52.394;13.036;2023-04-24T06:26:03;2.28;;;1.30;;
4180;SDS011;2104;52.394;13.036;2023-04-24T06:28:29;2.42;;;0.95;;
4180;SDS011;2104;52.394;13.036;2023-04-24T06:30:54;1.73;;;1.00;;
4180;SDS011;2104;52.394;13.036;2023-04-24T06:33:20;5.32;;;1.73;;
4180;SDS011;2104;52.394;13.036;2023-04-24T06:35:46;3.58;;;1.23;;
4180;SDS011;2104;52.394;13.036;2023-04-24T06:38:11;4.15;;;1.00;;
4180;SDS011;2104;52.394;13.036;2023-04-24T06:40:37;1.40;;;0.98;;
4180;SDS011;2104;52.394;13.036;2023-04-24T06:43:02;1.55;;;0.82;;
4180;SDS011;2104;52.394;13.036;2023-04-24T06:45:28;1.40;;;0.93;;
4180;SDS011;2104;52.394;13.036;2023-04-24T06:47:54;2.97;;;1.25;;
4180;SDS011;2104;52.394;13.036;2023-04-24T06:50:20;2.08;;;1.17;;
4180;SDS011;2104;52.394;13.036;2023-04-24T06:52:45;1.27;;;0.70;;
4180;SDS011;2104;52.394;13.036;2023-04-24T06:55:11;2.00;;;0.65;;
4180;SDS011;2104;52.394;13.036;2023-04-24T06:57:36;3.67;;;2.13;;
4180;SDS011;2104;52.394;13.036;2023-04-24T07:00:02;2.30;;;0.90;;
4180;SDS011;2104;52.394;13.036;2023-04-24T07:02:30;3.33;;;0.80;;
4180;SDS011;2104;52.394;13.036;2023-04-24T07:04:56;3.58;;;0.98;;
4180;SDS011;2104;52.394;13.036;2023-04-24T07:07:22;1.02;;;0.73;;
4180;SDS011;2104;52.394;13.036;2023-04-24T07:09:48;1.05;;;0.75;;
4180;SDS011;2104;52.394;13.036;2023-04-24T07:12:15;2.33;;;0.73;;
4180;SDS011;2104;52.394;13.036;2023-04-24T07:14:42;2.80;;;0.73;;
4180;SDS011;2104;52.394;13.036;2023-04-24T07:17:07;1.52;;;1.10;;
4180;SDS011;2104;52.394;13.036;2023-04-24T07:19:33;3.03;;;0.75;;
4180;SDS011;2104;52.394;13.036;2023-04-24T07:22:00;1.27;;;0.70;;
4180;SDS011;2104;52.394;13.036;2023-04-24T07:24:26;1.23;;;0.80;;
4180;SDS011;2104;52.394;13.036;2023-04-24T07:26:51;2.30;;;0.93;;
4180;SDS011;2104;52.394;13.036;2023-04-24T07:29:17;1.42;;;0.80;;
4180;SDS011;2104;52.394;13.036;2023-04-24T07:31:43;2.17;;;0.95;;
4180;SDS011;2104;52.394;13.036;2023-04-24T07:34:08;1.13;;;0.60;;
4180;SDS011;2104;52.394;13.036;2023-04-24T07:36:34;2.03;;;0.70;;
4180;SDS011;2104;52.394;13.036;2023-04-24T07:39:00;2.97;;;0.70;;
4180;SDS011;2104;52.394;13.036;2023-04-24T07:41:25;1.35;;;0.70;;
4180;SDS011;2104;52.394;13.036;2023-04-24T07:43:52;1.75;;;0.68;;
4180;SDS011;2104;52.394;13.036;2023-04-24T07:46:18;1.73;;;0.70;;
4180;SDS011;2104;52.394;13.036;2023-04-24T07:48:44;4.57;;;0.50;;
4180;SDS011;2104;52.394;13.036;2023-04-24T07:51:11;3.67;;;1.20;;
4180;SDS011;2104;52.394;13.036;2023-04-24T07:53:38;1.27;;;0.55;;
4180;SDS011;2104;52.394;13.036;2023-04-24T07:56:04;1.02;;;0.55;;
4180;SDS011;2104;52.394;13.036;2023-04-24T07:58:29;1.65;;;0.75;;
4180;SDS011;2104;52.394;13.036;2023-04-24T08:00:55;3.95;;;0.60;;
4180;SDS011;2104;52.394;13.036;2023-04-24T08:03:20;2.47;;;0.38;;
4180;SDS011;2104;52.394;13.036;2023-04-24T08:05:46;0.90;;;0.43;;
4180;SDS011;2104;52.394;13.036;2023-04-24T08:08:12;1.60;;;0.57;;
4180;SDS011;2104;52.394;13.036;2023-04-24T08:10:37;2.15;;;0.80;;
4180;SDS011;2104;52.394;13.036;2023-04-24T08:13:02;3.17;;;0.60;;
4180;SDS011;2104;52.394;13.036;2023-04-24T08:15:28;1.10;;;0.85;;
4180;SDS011;2104;52.394;13.036;2023-04-24T08:17:53;4.10;;;1.25;;
4180;SDS011;2104;52.394;13.036;2023-04-24T08:20:19;2.47;;;0.88;;
4180;SDS011;2104;52.394;13.036;2023-04-24T08:22:45;1.45;;;0.60;;
4180;SDS011;2104;52.394;13.036;2023-04-24T08:25:12;8.93;;;1.50;;
4180;SDS011;2104;52.394;13.036;2023-04-24T08:27:37;3.53;;;1.10;;
4180;SDS011;2104;52.394;13.036;2023-04-24T08:30:04;1.63;;;0.60;;
4180;SDS011;2104;52.394;13.036;2023-04-24T08:32:30;2.60;;;0.60;;
4180;SDS011;2104;52.394;13.036;2023-04-24T08:34:55;0.77;;;0.50;;
4180;SDS011;2104;52.394;13.036;2023-04-24T08:37:22;0.82;;;0.40;;
4180;SDS011;2104;52.394;13.036;2023-04-24T08:39:51;4.05;;;1.02;;
4180;SDS011;2104;52.394;13.036;2023-04-24T08:42:17;1.77;;;0.70;;
4180;SDS011;2104;52.394;13.036;2023-04-24T08:44:43;2.22;;;0.95;;
4180;SDS011;2104;52.394;13.036;2023-04-24T08:47:09;4.00;;;0.65;;
4180;SDS011;2104;52.394;13.036;2023-04-24T08:49:36;2.08;;;0.77;;
4180;SDS011;2104;52.394;13.036;2023-04-24T08:52:02;1.25;;;0.40;;
4180;SDS011;2104;52.394;13.036;2023-04-24T08:54:28;1.77;;;0.60;;
4180;SDS011;2104;52.394;13.036;2023-04-24T08:56:53;1.92;;;0.80;;
4180;SDS011;2104;52.394;13.036;2023-04-24T08:59:23;5.22;;;1.30;;
4180;SDS011;2104;52.394;13.036;2023-04-24T09:01:48;1.85;;;0.40;;
4180;SDS011;2104;52.394;13.036;2023-04-24T09:04:14;1.63;;;0.73;;
4180;SDS011;2104;52.394;13.036;2023-04-24T09:06:41;1.90;;;0.43;;
4180;SDS011;2104;52.394;13.036;2023-04-24T09:09:07;0.88;;;0.57;;
4180;SDS011;2104;52.394;13.036;2023-04-24T09:11:33;3.45;;;0.85;;
4180;SDS011;2104;52.394;13.036;2023-04-24T09:13:59;0.95;;;0.40;;
4180;SDS011;2104;52.394;13.036;2023-04-24T09:16:26;1.75;;;0.57;;
4180;SDS011;2104;52.394;13.036;2023-04-24T09:18:51;1.52;;;0.45;;
4180;SDS011;2104;52.394;13.036;2023-04-24T09:21:17;3.92;;;0.68;;
4180;SDS011;2104;52.394;13.036;2023-04-24T09:23:45;1.63;;;0.73;;
4180;SDS011;2104;52.394;13.036;2023-04-24T09:26:11;1.52;;;0.50;;
4180;SDS011;2104;52.394;13.036;2023-04-24T09:28:38;8.02;;;0.68;;
4180;SDS011;2104;52.394;13.036;2023-04-24T09:31:06;1.02;;;0.60;;
4180;SDS011;2104;52.394;13.036;2023-04-24T09:33:37;2.15;;;0.88;;
4180;SDS011;2104;52.394;13.036;2023-04-24T09:36:03;1.23;;;0.80;;
4180;SDS011;2104;52.394;13.036;2023-04-24T09:38:32;1.05;;;0.60;;
4180;SDS011;2104;52.394;13.036;2023-04-24T09:40:59;2.70;;;1.00;;
4180;SDS011;2104;52.394;13.036;2023-04-24T09:43:28;1.35;;;0.77;;
4180;SDS011;2104;52.394;13.036;2023-04-24T09:45:55;0.60;;;0.30;;
4180;SDS011;2104;52.394;13.036;2023-04-24T09:48:31;1.77;;;0.70;;
4180;SDS011;2104;52.394;13.036;2023-04-24T09:53:32;8.77;;;1.35;;
4180;SDS011;2104;52.394;13.036;2023-04-24T09:56:07;1.13;;;0.50;;
4180;SDS011;2104;52.394;13.036;2023-04-24T09:58:34;2.00;;;0.50;;
4180;SDS011;2104;52.394;13.036;2023-04-24T10:01:00;1.35;;;0.63;;
4180;SDS011;2104;52.394;13.036;2023-04-24T10:03:26;2.75;;;1.02;;
4180;SDS011;2104;52.394;13.036;2023-04-24T10:05:52;2.97;;;0.65;;
4180;SDS011;2104;52.394;13.036;2023-04-24T10:08:18;2.08;;;0.60;;
4180;SDS011;2104;52.394;13.036;2023-04-24T10:10:44;4.43;;;0.80;;
4180;SDS011;2104;52.394;13.036;2023-04-24T10:13:11;3.70;;;1.45;;
4180;SDS011;2104;52.394;13.036;2023-04-24T10:15:38;2.20;;;0.80;;
4180;SDS011;2104;52.394;13.036;2023-04-24T10:18:05;0.95;;;0.38;;
4180;SDS011;2104;52.394;13.036;2023-04-24T10:20:31;3.80;;;0.50;;
4180;SDS011;2104;52.394;13.036;2023-04-24T10:22:57;1.05;;;0.50;;
4180;SDS011;2104;52.394;13.036;2023-04-24T10:25:25;0.98;;;0.50;;
4180;SDS011;2104;52.394;13.036;2023-04-24T10:27:52;3.17;;;0.60;;
4180;SDS011;2104;52.394;13.036;2023-04-24T10:30:18;1.40;;;0.60;;
4180;SDS011;2104;52.394;13.036;2023-04-24T10:32:44;1.40;;;0.50;;
4180;SDS011;2104;52.394;13.036;2023-04-24T10:35:10;1.67;;;0.50;;
4180;SDS011;2104;52.394;13.036;2023-04-24T10:37:38;4.43;;;1.08;;
4180;SDS011;2104;52.394;13.036;2023-04-24T10:40:06;6.75;;;0.70;;
4180;SDS011;2104;52.394;13.036;2023-04-24T10:42:33;1.33;;;0.75;;
4180;SDS011;2104;52.394;13.036;2023-04-24T10:44:58;1.38;;;0.50;;
4180;SDS011;2104;52.394;13.036;2023-04-24T10:47:26;3.78;;;0.75;;
4180;SDS011;2104;52.394;13.036;2023-04-24T10:49:52;4.65;;;0.70;;
4180;SDS011;2104;52.394;13.036;2023-04-24T10:52:17;6.07;;;1.20;;
4180;SDS011;2104;52.394;13.036;2023-04-24T10:54:46;8.52;;;1.00;;
4180;SDS011;2104;52.394;13.036;2023-04-24T10:59:47;3.33;;;1.25;;
4180;SDS011;2104;52.394;13.036;2023-04-24T11:02:15;1.98;;;0.82;;
4180;SDS011;2104;52.394;13.036;2023-04-24T11:04:41;2.58;;;1.00;;
4180;SDS011;2104;52.394;13.036;2023-04-24T11:07:11;1.20;;;0.70;;
4180;SDS011;2104;52.394;13.036;2023-04-24T11:09:37;2.45;;;0.60;;
4180;SDS011;2104;52.394;13.036;2023-04-24T11:12:09;4.88;;;0.73;;
4180;SDS011;2104;52.394;13.036;2023-04-24T11:17:30;1.75;;;0.88;;
4180;SDS011;2104;52.394;13.036;2023-04-24T11:20:05;2.95;;;0.63;;
4180;SDS011;2104;52.394;13.036;2023-04-24T11:22:36;3.42;;;0.60;;
4180;SDS011;2104;52.394;13.036;2023-04-24T11:25:03;0.63;;;0.30;;
4180;SDS011;2104;52.394;13.036;2023-04-24T11:27:30;1.73;;;0.50;;
4180;SDS011;2104;52.394;13.036;2023-04-24T11:32:24;3.03;;;0.40;;
4180;SDS011;2104;52.394;13.036;2023-04-24T11:35:02;2.88;;;0.82;;
4180;SDS011;2104;52.394;13.036;2023-04-24T11:37:38;0.80;;;0.47;;
4180;SDS011;2104;52.394;13.036;2023-04-24T11:40:05;0.38;;;0.30;;
4180;SDS011;2104;52.394;13.036;2023-04-24T11:42:35;1.08;;;0.30;;
4180;SDS011;2104;52.394;13.036;2023-04-24T11:45:09;3.83;;;0.50;;
4180;SDS011;2104;52.394;13.036;2023-04-24T11:47:41;1.17;;;0.40;;
4180;SDS011;2104;52.394;13.036;2023-04-24T11:50:08;1.40;;;0.40;;
4180;SDS011;2104;52.394;13.036;2023-04-24T11:52:38;1.33;;;0.40;;
4180;SDS011;2104;52.394;13.036;2023-04-24T11:55:07;1.17;;;0.32;;
4180;SDS011;2104;52.394;13.036;2023-04-24T11:57:49;2.60;;;0.32;;
4180;SDS011;2104;52.394;13.036;2023-04-24T12:00:19;2.20;;;0.50;;
4180;SDS011;2104;52.394;13.036;2023-04-24T12:02:45;0.50;;;0.38;;
4180;SDS011;2104;52.394;13.036;2023-04-24T12:05:20;1.02;;;0.35;;
4180;SDS011;2104;52.394;13.036;2023-04-24T12:07:46;0.75;;;0.40;;
4180;SDS011;2104;52.394;13.036;2023-04-24T12:10:12;3.60;;;0.40;;
4180;SDS011;2104;52.394;13.036;2023-04-24T12:12:37;3.78;;;0.60;;
4180;SDS011;2104;52.394;13.036;2023-04-24T12:15:07;3.10;;;0.35;;
4180;SDS011;2104;52.394;13.036;2023-04-24T12:17:33;2.60;;;0.60;;
4180;SDS011;2104;52.394;13.036;2023-04-24T12:20:03;2.63;;;0.52;;
4180;SDS011;2104;52.394;13.036;2023-04-24T12:25:11;2.30;;;0.40;;
4180;SDS011;2104;52.394;13.036;2023-04-24T12:27:36;1.73;;;0.52;;
4180;SDS011;2104;52.394;13.036;2023-04-24T12:30:03;1.25;;;0.43;;
4180;SDS011;2104;52.394;13.036;2023-04-24T12:32:29;1.00;;;0.40;;
4180;SDS011;2104;52.394;13.036;2023-04-24T12:34:55;1.00;;;0.40;;
4180;SDS011;2104;52.394;13.036;2023-04-24T12:37:22;1.10;;;0.70;;
4180;SDS011;2104;52.394;13.036;2023-04-24T12:40:05;1.05;;;0.50;;
4180;SDS011;2104;52.394;13.036;2023-04-24T12:42:33;0.60;;;0.40;;
4180;SDS011;2104;52.394;13.036;2023-04-24T12:45:00;3.35;;;0.50;;
4180;SDS011;2104;52.394;13.036;2023-04-24T12:47:32;1.40;;;0.65;;
4180;SDS011;2104;52.394;13.036;2023-04-24T12:49:58;2.58;;;0.50;;
4180;SDS011;2104;52.394;13.036;2023-04-24T12:52:25;1.02;;;0.43;;
4180;SDS011;2104;52.394;13.036;2023-04-24T12:54:55;2.15;;;0.40;;
4180;SDS011;2104;52.394;13.036;2023-04-24T12:57:22;1.30;;;0.50;;
4180;SDS011;2104;52.394;13.036;2023-04-24T12:59:52;3.13;;;0.60;;
4180;SDS011;2104;52.394;13.036;2023-04-24T13:02:18;2.28;;;0.68;;
4180;SDS011;2104;52.394;13.036;2023-04-24T13:04:47;0.65;;;0.40;;
4180;SDS011;2104;52.394;13.036;2023-04-24T13:07:13;2.67;;;0.73;;
4180;SDS011;2104;52.394;13.036;2023-04-24T13:09:39;0.75;;;0.40;;
4180;SDS011;2104;52.394;13.036;2023-04-24T13:12:05;3.83;;;0.40;;
4180;SDS011;2104;52.394;13.036;2023-04-24T13:14:32;2.47;;;0.47;;
4180;SDS011;2104;52.394;13.036;2023-04-24T13:16:57;0.80;;;0.50;;
4180;SDS011;2104;52.394;13.036;2023-04-24T13:19:25;0.93;;;0.50;;
4180;SDS011;2104;52.394;13.036;2023-04-24T13:21:51;1.30;;;0.40;;
4180;SDS011;2104;52.394;13.036;2023-04-24T13:24:18;3.25;;;0.60;;
4180;SDS011;2104;52.394;13.036;2023-04-24T13:26:44;1.27;;;0.30;;
4180;SDS011;2104;52.394;13.036;2023-04-24T13:29:09;3.65;;;0.40;;
4180;SDS011;2104;52.394;13.036;2023-04-24T13:31:35;0.68;;;0.40;;
4180;SDS011;2104;52.394;13.036;2023-04-24T13:34:01;1.45;;;0.70;;
4180;SDS011;2104;52.394;13.036;2023-04-24T13:36:27;1.10;;;0.50;;
4180;SDS011;2104;52.394;13.036;2023-04-24T13:38:52;1.13;;;0.45;;
4180;SDS011;2104;52.394;13.036;2023-04-24T13:41:18;2.63;;;0.60;;
4180;SDS011;2104;52.394;13.036;2023-04-24T13:43:43;0.55;;;0.30;;
4180;SDS011;2104;52.394;13.036;2023-04-24T13:46:09;2.35;;;0.50;;
4180;SDS011;2104;52.394;13.036;2023-04-24T13:48:34;2.28;;;0.50;;
4180;SDS011;2104;52.394;13.036;2023-04-24T13:51:00;4.00;;;0.57;;
4180;SDS011;2104;52.394;13.036;2023-04-24T13:53:25;0.95;;;0.50;;
4180;SDS011;2104;52.394;13.036;2023-04-24T13:55:50;2.83;;;0.70;;
4180;SDS011;2104;52.394;13.036;2023-04-24T13:58:16;1.38;;;0.57;;
4180;SDS011;2104;52.394;13.036;2023-04-24T14:00:41;1.42;;;0.73;;
4180;SDS011;2104;52.394;13.036;2023-04-24T14:03:06;3.78;;;0.50;;
4180;SDS011;2104;52.394;13.036;2023-04-24T14:05:32;0.93;;;0.47;;
4180;SDS011;2104;52.394;13.036;2023-04-24T14:07:57;2.58;;;0.63;;
4180;SDS011;2104;52.394;13.036;2023-04-24T14:10:23;2.35;;;0.70;;
4180;SDS011;2104;52.394;13.036;2023-04-24T14:12:48;2.58;;;0.70;;
4180;SDS011;2104;52.394;13.036;2023-04-24T14:15:14;2.90;;;1.45;;
4180;SDS011;2104;52.394;13.036;2023-04-24T14:17:39;1.27;;;1.13;;
4180;SDS011;2104;52.394;13.036;2023-04-24T14:20:05;1.42;;;0.80;;
4180;SDS011;2104;52.394;13.036;2023-04-24T14:22:32;2.47;;;0.70;;
4180;SDS011;2104;52.394;13.036;2023-04-24T14:24:57;2.58;;;0.70;;
4180;SDS011;2104;52.394;13.036;2023-04-24T14:27:23;1.27;;;0.60;;
4180;SDS011;2104;52.394;13.036;2023-04-24T14:29:49;3.03;;;1.05;;
4180;SDS011;2104;52.394;13.036;2023-04-24T14:32:15;3.47;;;1.50;;
4180;SDS011;2104;52.394;13.036;2023-04-24T14:34:40;2.15;;;0.88;;
4180;SDS011;2104;52.394;13.036;2023-04-24T14:37:06;1.58;;;0.60;;
4180;SDS011;2104;52.394;13.036;2023-04-24T14:39:32;2.17;;;0.77;;
4180;SDS011;2104;52.394;13.036;2023-04-24T14:41:57;1.92;;;1.38;;
4180;SDS011;2104;52.394;13.036;2023-04-24T14:44:23;3.15;;;0.70;;
4180;SDS011;2104;52.394;13.036;2023-04-24T14:46:48;1.48;;;0.77;;
4180;SDS011;2104;52.394;13.036;2023-04-24T14:49:14;3.60;;;1.10;;
4180;SDS011;2104;52.394;13.036;2023-04-24T14:51:39;6.05;;;0.68;;
4180;SDS011;2104;52.394;13.036;2023-04-24T14:54:06;3.63;;;0.80;;
4180;SDS011;2104;52.394;13.036;2023-04-24T14:56:31;3.85;;;1.05;;
4180;SDS011;2104;52.394;13.036;2023-04-24T14:58:57;2.47;;;0.70;;
4180;SDS011;2104;52.394;13.036;2023-04-24T15:01:23;1.75;;;1.00;;
4180;SDS011;2104;52.394;13.036;2023-04-24T15:03:49;3.30;;;0.85;;
4180;SDS011;2104;52.394;13.036;2023-04-24T15:06:15;1.25;;;0.85;;